^^
Paulen-Weather Station Historical Data
Daily Summary for August 06, 2022 Units:  Metric    English   Both
Daily Weekly Monthly Yearly Custom
  High: Low: Average:
Temperature: 13 °C 11 °C 11.9 °C
Dew Point: 9 °C 7 °C 8.1 °C
Humidity: 80% 73% 78%
Wind Speed: 14km/h 5km/h 9.6km/h
Wind Gust: 12km/h - -
Wind- - WSW
Pressure: 1017.81 hPa 1015.37 hPa -
Precipitation: 0 mm    
Historical Graphs
 
 
Tabular Data for August 06, 2022
Time Temperature Dew Point Pressure Wind Wind Speed Wind Gust Humidity Rainfall Rate (Hourly) solar
00:04 13 °C 8 °C 1015.37 hPa W 13 km/h 8 km/h 73% 0 mm 0 W/m2
00:09 13 °C 8 °C 1015.37 hPa W 11 km/h 8 km/h 73% 0 mm 0 W/m2
00:14 12 °C 8 °C 1015.44 hPa WSW 10 km/h 7 km/h 74% 0 mm 0 W/m2
00:19 12 °C 8 °C 1015.48 hPa W 13 km/h 7 km/h 74% 0 mm 0 W/m2
00:24 12 °C 8 °C 1015.54 hPa WSW 10 km/h 9 km/h 75% 0 mm 0 W/m2
00:29 12 °C 8 °C 1015.51 hPa E 9 km/h 6 km/h 75% 0 mm 0 W/m2
00:34 12 °C 8 °C 1015.54 hPa W 9 km/h 9 km/h 75% 0 mm 0 W/m2
00:39 12 °C 8 °C 1015.51 hPa W 11 km/h 7 km/h 76% 0 mm 0 W/m2
00:44 12 °C 8 °C 1015.54 hPa W 12 km/h 8 km/h 76% 0 mm 0 W/m2
00:49 12 °C 8 °C 1015.61 hPa WSW 13 km/h 9 km/h 77% 0 mm 0 W/m2
00:54 12 °C 8 °C 1015.68 hPa W 12 km/h 9 km/h 77% 0 mm 0 W/m2
00:59 12 °C 8 °C 1015.71 hPa WSW 10 km/h 8 km/h 77% 0 mm 0 W/m2
01:04 12 °C 8 °C 1015.78 hPa WSW 8 km/h 7 km/h 77% 0 mm 0 W/m2
01:09 12 °C 8 °C 1015.82 hPa W 9 km/h 8 km/h 77% 0 mm 0 W/m2
01:14 12 °C 8 °C 1015.85 hPa WSW 11 km/h 8 km/h 78% 0 mm 0 W/m2
01:19 12 °C 8 °C 1015.85 hPa WSW 10 km/h 8 km/h 78% 0 mm 0 W/m2
01:24 12 °C 8 °C 1015.88 hPa WSW 14 km/h 11 km/h 78% 0 mm 0 W/m2
01:29 12 °C 8 °C 1015.95 hPa W 10 km/h 8 km/h 78% 0 mm 0 W/m2
01:34 12 °C 8 °C 1016.02 hPa WSW 8 km/h 5 km/h 78% 0 mm 0 W/m2
01:39 12 °C 8 °C 1016.09 hPa W 10 km/h 8 km/h 78% 0 mm 0 W/m2
01:44 12 °C 8 °C 1016.09 hPa WSW 8 km/h 8 km/h 78% 0 mm 0 W/m2
01:49 11 °C 8 °C 1016.15 hPa WSW 9 km/h 6 km/h 78% 0 mm 0 W/m2
01:54 11 °C 8 °C 1016.15 hPa WSW 8 km/h 7 km/h 78% 0 mm 0 W/m2
01:59 11 °C 8 °C 1016.22 hPa WSW 9 km/h 7 km/h 78% 0 mm 0 W/m2
02:04 11 °C 8 °C 1016.29 hPa WSW 8 km/h 8 km/h 78% 0 mm 0 W/m2
02:09 11 °C 8 °C 1016.26 hPa WSW 9 km/h 9 km/h 78% 0 mm 0 W/m2
02:14 11 °C 8 °C 1016.29 hPa W 12 km/h 9 km/h 78% 0 mm 0 W/m2
02:19 11 °C 8 °C 1016.32 hPa WSW 8 km/h 7 km/h 78% 0 mm 0 W/m2
02:24 11 °C 8 °C 1016.36 hPa W 7 km/h 7 km/h 78% 0 mm 0 W/m2
02:29 11 °C 7 °C 1016.42 hPa W 7 km/h 8 km/h 78% 0 mm 0 W/m2
02:34 11 °C 7 °C 1016.46 hPa W 8 km/h 7 km/h 78% 0 mm 0 W/m2
02:39 11 °C 7 °C 1016.42 hPa W 9 km/h 8 km/h 78% 0 mm 0 W/m2
02:44 11 °C 7 °C 1016.46 hPa W 10 km/h 8 km/h 78% 0 mm 0 W/m2
02:49 11 °C 8 °C 1016.53 hPa W 12 km/h 10 km/h 78% 0 mm 0 W/m2
02:54 11 °C 8 °C 1016.56 hPa W 8 km/h 8 km/h 79% 0 mm 0 W/m2
02:59 11 °C 8 °C 1016.59 hPa W 9 km/h 8 km/h 79% 0 mm 0 W/m2
03:04 11 °C 8 °C 1016.59 hPa W 8 km/h 6 km/h 79% 0 mm 0 W/m2
03:09 11 °C 8 °C 1016.56 hPa WSW 7 km/h 6 km/h 79% 0 mm 0 W/m2
03:14 11 °C 8 °C 1016.53 hPa W 11 km/h 8 km/h 79% 0 mm 0 W/m2
03:19 11 °C 8 °C 1016.59 hPa W 8 km/h 5 km/h 80% 0 mm 0 W/m2
03:24 11 °C 8 °C 1016.63 hPa W 11 km/h 11 km/h 80% 0 mm 0 W/m2
03:29 11 °C 8 °C 1016.63 hPa W 11 km/h 10 km/h 80% 0 mm 0 W/m2
03:34 11 °C 8 °C 1016.63 hPa WSW 12 km/h 6 km/h 80% 0 mm 0 W/m2
03:39 11 °C 8 °C 1016.63 hPa W 10 km/h 7 km/h 80% 0 mm 0 W/m2
03:44 11 °C 8 °C 1016.59 hPa W 10 km/h 8 km/h 80% 0 mm 0 W/m2
03:49 11 °C 8 °C 1016.66 hPa W 10 km/h 8 km/h 80% 0 mm 0 W/m2
03:54 11 °C 8 °C 1016.66 hPa W 10 km/h 10 km/h 80% 0 mm 0 W/m2
03:59 11 °C 8 °C 1016.7 hPa W 11 km/h 7 km/h 80% 0 mm 0 W/m2
04:04 12 °C 8 °C 1016.66 hPa WSW 11 km/h 8 km/h 80% 0 mm 0 W/m2
04:09 12 °C 8 °C 1016.63 hPa S 9 km/h 7 km/h 79% 0 mm 0 W/m2
04:14 12 °C 8 °C 1016.59 hPa WSW 8 km/h 5 km/h 79% 0 mm 0 W/m2
04:19 12 °C 8 °C 1016.59 hPa WSW 6 km/h 4 km/h 79% 0 mm 0 W/m2
04:24 12 °C 8 °C 1016.56 hPa W 8 km/h 6 km/h 79% 0 mm 0 W/m2
04:29 12 °C 8 °C 1016.56 hPa WSW 9 km/h 7 km/h 79% 0 mm 0 W/m2
04:34 12 °C 8 °C 1016.59 hPa W 12 km/h 10 km/h 79% 0 mm 0 W/m2
04:39 12 °C 8 °C 1016.63 hPa WNW 9 km/h 8 km/h 79% 0 mm 0 W/m2
04:44 12 °C 8 °C 1016.66 hPa W 11 km/h 8 km/h 79% 0 mm 0 W/m2
04:49 12 °C 8 °C 1016.76 hPa W 12 km/h 12 km/h 79% 0 mm 0 W/m2
04:54 12 °C 8 °C 1016.76 hPa WSW 9 km/h 7 km/h 79% 0 mm 0 W/m2
04:59 12 °C 8 °C 1016.8 hPa W 10 km/h 7 km/h 79% 0 mm 0 W/m2
05:04 12 °C 8 °C 1016.83 hPa W 11 km/h 8 km/h 78% 0 mm 0 W/m2
05:09 12 °C 8 °C 1016.83 hPa WSW 9 km/h 7 km/h 78% 0 mm 0 W/m2
05:14 12 °C 8 °C 1016.86 hPa WSW 11 km/h 9 km/h 78% 0 mm 0 W/m2
05:19 12 °C 8 °C 1016.9 hPa WSW 9 km/h 9 km/h 78% 0 mm 5 W/m2
05:24 12 °C 8 °C 1016.93 hPa WSW 12 km/h 7 km/h 78% 0 mm 5 W/m2
05:29 12 °C 8 °C 1016.86 hPa W 6 km/h 5 km/h 78% 0 mm 7 W/m2
05:34 12 °C 8 °C 1016.97 hPa WSW 9 km/h 7 km/h 78% 0 mm 9 W/m2
05:39 12 °C 8 °C 1016.97 hPa SW 7 km/h 7 km/h 78% 0 mm 14 W/m2
05:44 12 °C 8 °C 1016.93 hPa W 9 km/h 8 km/h 78% 0 mm 18 W/m2
05:49 12 °C 8 °C 1016.97 hPa SW 10 km/h 7 km/h 78% 0 mm 28 W/m2
05:54 12 °C 8 °C 1017.03 hPa SW 7 km/h 6 km/h 78% 0 mm 40 W/m2
05:59 12 °C 8 °C 1017.07 hPa SW 7 km/h 6 km/h 78% 0 mm 40 W/m2
06:04 12 °C 8 °C 1017.03 hPa WSW 8 km/h 7 km/h 78% 0 mm 46 W/m2
06:09 12 °C 8 °C 1016.97 hPa W 10 km/h 8 km/h 78% 0 mm 39 W/m2
06:14 12 °C 8 °C 1016.97 hPa W 6 km/h 6 km/h 78% 0 mm 37 W/m2
06:19 12 °C 8 °C 1017.03 hPa W 11 km/h 8 km/h 78% 0 mm 30 W/m2
06:24 12 °C 8 °C 1017.07 hPa WSW 14 km/h 10 km/h 78% 0 mm 23 W/m2
06:29 12 °C 8 °C 1017.17 hPa SW 11 km/h 7 km/h 78% 0 mm 19 W/m2
06:34 12 °C 9 °C 1017.24 hPa SW 9 km/h 8 km/h 79% 0 mm 26 W/m2
06:39 12 °C 9 °C 1017.31 hPa WSW 8 km/h 6 km/h 79% 0 mm 32 W/m2
06:44 12 °C 9 °C 1017.31 hPa W 12 km/h 10 km/h 79% 0 mm 35 W/m2
06:49 12 °C 9 °C 1017.31 hPa WSW 11 km/h 7 km/h 80% 0 mm 49 W/m2
06:54 12 °C 9 °C 1017.31 hPa WSW 13 km/h 10 km/h 80% 0 mm 69 W/m2
06:59 12 °C 9 °C 1017.31 hPa WSW 12 km/h 9 km/h 80% 0 mm 88 W/m2
07:04 12 °C 9 °C 1017.37 hPa NW 7 km/h 5 km/h 80% 0 mm 93 W/m2
07:09 13 °C 9 °C 1017.44 hPa WSW 7 km/h 6 km/h 80% 0 mm 93 W/m2
07:14 13 °C 9 °C 1017.51 hPa W 11 km/h 8 km/h 80% 0 mm 93 W/m2
07:19 13 °C 9 °C 1017.54 hPa W 5 km/h 5 km/h 80% 0 mm 84 W/m2
07:24 13 °C 9 °C 1017.54 hPa S 6 km/h 8 km/h 80% 0 mm 74 W/m2
07:29 13 °C 9 °C 1017.58 hPa WSW 11 km/h 9 km/h 80% 0 mm 69 W/m2
07:34 13 °C 9 °C 1017.61 hPa WNW 6 km/h 5 km/h 80% 0 mm 67 W/m2
07:39 13 °C 9 °C 1017.58 hPa WSW 8 km/h 7 km/h 80% 0 mm 76 W/m2
07:44 13 °C 9 °C 1017.71 hPa W 9 km/h 7 km/h 80% 0 mm 76 W/m2
07:49 13 °C 9 °C 1017.71 hPa WSW 10 km/h 8 km/h 80% 0 mm 81 W/m2
07:54 13 °C 9 °C 1017.78 hPa WNW 12 km/h 9 km/h 80% 0 mm 84 W/m2
07:59 13 °C 9 °C 1017.81 hPa WNW 10 km/h 8 km/h 80% 0 mm 98 W/m2
Compliments of Weather Underground - 2 mb